Terminal Aerodrome Forecast
Issued by NWS Denver/Boulder, CO

Home | Current Version | Previous Version | Text Only | Print | Product List | Glossary On
Versions: 1 2 3 4 5 6 7 8 9 10 11 12 13 14 15 16 17 18 19 20 21 22 23 24 25 26 27 28 29 30 31 32
000
FTUS45 KBOU 130104 AAA
TAFDEN
TAF AMD
KDEN 130104Z 1301/1406 24008KT P6SM FEW250
     FM130300 21010KT P6SM SCT220
     FM131700 34006KT P6SM SCT200
     FM131900 04012KT P6SM SCT080 BKN120
     FM140000 06008KT P6SM VCSH SCT050 BKN080 PROB30 1403/1406
      -SHRASN BKN050=

USA.gov is the U.S. government's official web portal to all federal, state and local government web resources and services.